Time;durP1;ratioP1;P1;durP2;ratioP2;P2;SDS_P1;SDS_P2;PMS_P1;PMS_P2;Temp;Humidity;BMP_temperature;BMP_pressure;BME280_temperature;BME280_humidity;BME280_pressure;Samples;Min_cycle;Max_cycle;Signal;HPM_P1;HPM_P2
2022/04/19 00:00:42;;;;;;;3.30;3.00;;;20.50;38.60;;;;;;5064786;28;20501;-62
2022/04/19 00:03:08;;;;;;;3.72;3.35;;;20.50;38.60;;;;;;5060569;28;20510;-63
2022/04/19 00:05:36;;;;;;;3.80;3.45;;;20.50;38.60;;;;;;5062641;28;20044;-62
2022/04/19 00:08:05;;;;;;;3.25;2.95;;;20.50;38.60;;;;;;5060815;28;20041;-63
2022/04/19 00:10:31;;;;;;;3.38;3.08;;;20.50;38.60;;;;;;5056834;28;20052;-62
2022/04/19 00:13:01;;;;;;;3.25;2.95;;;20.50;38.60;;;;;;5059299;28;20463;-62
2022/04/19 00:15:28;;;;;;;3.30;2.95;;;20.50;38.60;;;;;;5066931;28;20052;-62
2022/04/19 00:17:58;;;;;;;3.75;3.17;;;20.50;38.60;;;;;;5061885;28;20043;-62
2022/04/19 00:20:25;;;;;;;3.30;3.00;;;20.50;38.60;;;;;;5044201;28;20226;-63
2022/04/19 00:22:51;;;;;;;3.25;2.95;;;20.50;38.50;;;;;;5056730;28;20044;-63
2022/04/19 00:25:18;;;;;;;3.30;3.00;;;20.50;38.60;;;;;;5057374;28;20114;-62
2022/04/19 00:27:44;;;;;;;2.80;2.60;;;20.50;38.60;;;;;;5056941;28;20044;-64
2022/04/19 00:30:10;;;;;;;3.58;3.00;;;20.50;38.60;;;;;;5057461;28;20171;-63
2022/04/19 00:32:37;;;;;;;3.17;2.90;;;20.50;38.50;;;;;;5062457;28;20108;-62
2022/04/19 00:35:07;;;;;;;2.97;2.67;;;20.50;38.60;;;;;;5060482;28;20033;-62
2022/04/19 00:37:34;;;;;;;3.10;2.80;;;20.50;38.50;;;;;;5061050;28;20044;-64
2022/04/19 00:40:01;;;;;;;3.25;2.95;;;20.50;38.50;;;;;;5058951;28;20163;-63
2022/04/19 00:42:31;;;;;;;3.10;2.70;;;20.50;38.50;;;;;;5056438;28;20059;-62
2022/04/19 00:44:58;;;;;;;3.63;3.25;;;20.50;38.70;;;;;;5051331;28;20080;-62
2022/04/19 00:47:24;;;;;;;4.03;3.25;;;20.50;38.50;;;;;;5052011;28;20064;-63
2022/04/19 00:49:50;;;;;;;3.72;3.25;;;20.50;38.50;;;;;;5052053;28;20044;-62
2022/04/19 00:52:16;;;;;;;4.38;3.03;;;20.50;39.20;;;;;;5054579;28;20421;-64
2022/04/19 00:54:43;;;;;;;3.10;2.80;;;20.50;38.50;;;;;;5055634;28;20105;-61
2022/04/19 00:57:10;;;;;;;3.05;2.85;;;20.40;38.40;;;;;;5054236;28;20124;-62
2022/04/19 00:59:36;;;;;;;3.40;3.10;;;20.40;38.40;;;;;;5054270;28;20036;-63
2022/04/19 01:02:02;;;;;;;3.53;3.20;;;20.40;38.40;;;;;;5056133;28;20048;-64
2022/04/19 01:04:29;;;;;;;3.38;3.08;;;20.40;38.40;;;;;;5051892;28;20051;-62
2022/04/19 01:06:56;;;;;;;3.40;2.85;;;20.40;38.40;;;;;;5054559;28;20048;-62
2022/04/19 01:09:23;;;;;;;3.28;2.97;;;20.40;38.30;;;;;;5053965;28;20063;-63
2022/04/19 01:14:36;;;;;;;3.50;3.20;;;20.40;38.40;;;;;;5053610;28;20711;-61
2022/04/19 01:17:03;;;;;;;3.25;2.95;;;20.40;38.40;;;;;;5052998;28;20084;-62
2022/04/19 01:19:29;;;;;;;3.55;3.13;;;20.40;38.40;;;;;;5055069;28;20424;-63
2022/04/19 01:21:54;;;;;;;3.33;3.00;;;20.40;38.40;;;;;;5052734;28;20117;-62
2022/04/19 01:24:22;;;;;;;3.92;3.38;;;20.40;38.40;;;;;;5054354;28;20896;-62
2022/04/19 01:26:49;;;;;;;3.55;3.08;;;20.40;38.30;;;;;;5050919;28;20071;-61
2022/04/19 01:29:16;;;;;;;3.33;3.03;;;20.40;38.30;;;;;;5051532;28;20041;-64
2022/04/19 01:31:42;;;;;;;3.40;3.10;;;20.40;38.30;;;;;;5053346;28;20041;-62
2022/04/19 01:34:09;;;;;;;3.83;3.17;;;20.40;38.40;;;;;;5052148;28;20141;-62
2022/04/19 01:36:38;;;;;;;3.60;3.30;;;20.40;38.30;;;;;;5053691;28;20396;-62
2022/04/19 01:39:05;;;;;;;3.70;3.40;;;20.40;38.30;;;;;;5054858;28;20071;-65
2022/04/19 01:41:31;;;;;;;3.72;3.30;;;20.40;38.30;;;;;;5056324;28;20051;-65
2022/04/19 01:43:57;;;;;;;4.45;3.45;;;20.30;38.20;;;;;;5059261;28;20033;-63
2022/04/19 01:46:23;;;;;;;3.00;2.80;;;20.30;38.30;;;;;;5056362;28;20115;-64
2022/04/19 01:48:50;;;;;;;3.20;2.90;;;20.40;38.30;;;;;;5057122;28;20131;-62
2022/04/19 01:51:16;;;;;;;3.75;3.05;;;20.40;38.30;;;;;;5056809;28;20536;-63
2022/04/19 01:53:42;;;;;;;3.30;3.00;;;20.40;38.30;;;;;;5058503;28;20407;-62
2022/04/19 01:56:08;;;;;;;4.03;3.22;;;20.40;38.20;;;;;;5058716;28;20041;-62
2022/04/19 01:58:34;;;;;;;3.40;3.10;;;20.40;38.20;;;;;;5057465;28;20047;-62
2022/04/19 02:00:59;;;;;;;3.35;3.05;;;20.40;38.20;;;;;;5052922;28;20407;-63
2022/04/19 02:03:25;;;;;;;3.70;3.30;;;20.30;38.20;;;;;;5056595;28;20044;-61
2022/04/19 02:05:50;;;;;;;3.92;3.20;;;20.30;38.20;;;;;;5053786;28;20044;-62
2022/04/19 02:08:16;;;;;;;3.88;3.35;;;20.30;38.20;;;;;;5055210;28;20044;-63
2022/04/19 02:10:41;;;;;;;3.35;3.05;;;20.30;38.30;;;;;;5054072;28;20033;-62
2022/04/19 02:13:07;;;;;;;3.25;2.90;;;20.30;38.20;;;;;;5053981;28;20522;-64
2022/04/19 02:15:33;;;;;;;3.58;3.00;;;20.30;38.20;;;;;;5054706;28;20521;-63
2022/04/19 02:17:58;;;;;;;3.85;3.08;;;20.30;38.20;;;;;;5057873;28;20131;-61
2022/04/19 02:20:24;;;;;;;3.67;3.03;;;20.30;38.20;;;;;;5052441;28;20048;-63
2022/04/19 02:22:49;;;;;;;3.55;3.25;;;20.30;38.20;;;;;;5056355;28;20050;-62
2022/04/19 02:25:16;;;;;;;3.20;2.90;;;20.30;38.20;;;;;;5055951;28;20036;-65
2022/04/19 02:27:43;;;;;;;3.30;3.00;;;20.30;38.10;;;;;;5055461;28;20052;-62
2022/04/19 02:30:14;;;;;;;3.20;2.90;;;20.30;38.10;;;;;;5056263;28;20083;-63
2022/04/19 02:32:48;;;;;;;3.40;3.10;;;20.30;38.20;;;;;;5057372;28;20377;-62
2022/04/19 02:35:19;;;;;;;3.08;2.78;;;20.30;38.10;;;;;;5055545;28;20041;-63
2022/04/19 02:37:52;;;;;;;3.90;3.17;;;20.30;38.20;;;;;;5057235;28;20137;-63
2022/04/19 02:40:19;;;;;;;3.75;3.33;;;20.30;38.20;;;;;;5056391;28;20114;-61
2022/04/19 02:42:46;;;;;;;3.58;2.60;;;20.30;38.10;;;;;;5057477;28;20119;-61
2022/04/19 02:45:12;;;;;;;3.40;3.10;;;20.30;38.10;;;;;;5056370;28;20044;-62
2022/04/19 02:47:39;;;;;;;3.80;3.50;;;20.20;38.10;;;;;;5054343;28;20033;-62
2022/04/19 02:50:05;;;;;;;3.50;3.00;;;20.30;38.10;;;;;;5054216;28;20089;-64
2022/04/19 02:52:31;;;;;;;3.67;3.10;;;20.30;38.10;;;;;;5055711;28;20830;-65
2022/04/19 02:54:57;;;;;;;3.45;3.15;;;20.30;38.80;;;;;;5053868;28;20045;-62
2022/04/19 02:57:22;;;;;;;3.28;3.05;;;20.20;38.00;;;;;;5055762;28;20047;-62
2022/04/19 02:59:48;;;;;;;3.75;3.45;;;20.20;38.10;;;;;;5058194;28;20522;-64
2022/04/19 03:02:14;;;;;;;3.90;3.50;;;20.20;38.00;;;;;;5055519;28;20718;-61
2022/04/19 03:04:40;;;;;;;4.05;3.38;;;20.20;38.00;;;;;;5055223;28;20085;-63
2022/04/19 03:07:06;;;;;;;3.75;3.40;;;20.20;38.00;;;;;;5055098;28;20044;-62
2022/04/19 03:09:32;;;;;;;3.45;3.15;;;20.20;38.00;;;;;;5055648;28;20048;-62
2022/04/19 03:11:57;;;;;;;3.28;3.00;;;20.20;38.00;;;;;;5055441;28;20033;-62
2022/04/19 03:14:25;;;;;;;3.10;2.85;;;20.20;38.00;;;;;;5054365;28;20424;-61
2022/04/19 03:16:51;;;;;;;3.47;3.13;;;20.20;38.00;;;;;;5056992;28;20040;-62
2022/04/19 03:19:17;;;;;;;3.55;3.25;;;20.20;38.00;;;;;;5055264;28;20041;-61
2022/04/19 03:21:43;;;;;;;3.08;2.78;;;20.20;38.00;;;;;;5055787;28;20139;-60
2022/04/19 03:29:37;;;;;;;3.50;3.10;;;20.20;38.00;;;;;;5054424;28;20037;-62
2022/04/19 03:32:03;;;;;;;3.17;2.88;;;20.20;38.00;;;;;;5057770;28;20105;-62
2022/04/19 03:34:28;;;;;;;3.72;3.10;;;20.20;38.00;;;;;;5055186;28;20044;-63
2022/04/19 03:36:54;;;;;;;3.80;2.97;;;20.20;38.00;;;;;;5056053;28;20170;-62
2022/04/19 03:39:19;;;;;;;3.30;3.00;;;20.20;37.90;;;;;;5056291;28;20144;-62
2022/04/19 03:41:45;;;;;;;3.35;3.05;;;20.20;37.90;;;;;;5054296;28;20081;-62
2022/04/19 03:44:12;;;;;;;3.15;2.85;;;20.20;37.90;;;;;;5052910;28;20051;-62
2022/04/19 03:47:07;;;;;;;3.42;3.13;;;20.20;38.00;;;;;;5055865;28;20040;-61
2022/04/19 03:49:26;;;;;;;3.65;3.35;;;20.20;38.00;;;;;;5055165;28;20045;-62
2022/04/19 03:51:52;;;;;;;3.20;2.90;;;20.20;38.00;;;;;;5055660;28;20091;-62
2022/04/19 03:54:17;;;;;;;2.65;2.45;;;20.20;37.90;;;;;;5054198;28;20044;-63
2022/04/19 03:56:43;;;;;;;3.78;3.10;;;20.20;37.90;;;;;;5059258;28;20091;-62
2022/04/19 03:59:10;;;;;;;3.67;3.05;;;20.20;37.90;;;;;;5055654;28;20459;-62
2022/04/19 04:01:39;;;;;;;3.85;3.03;;;20.20;38.10;;;;;;5049709;28;20036;-63
2022/04/19 04:04:07;;;;;;;3.33;2.90;;;20.10;38.10;;;;;;5054105;28;20557;-64
2022/04/19 04:06:36;;;;;;;3.58;3.28;;;20.10;38.10;;;;;;5053393;28;20040;-62
2022/04/19 04:09:02;;;;;;;3.15;2.85;;;20.10;38.00;;;;;;5054770;28;20509;-62
2022/04/19 04:11:28;;;;;;;3.65;3.00;;;20.10;38.10;;;;;;5051655;28;20045;-62
2022/04/19 04:13:53;;;;;;;3.22;2.92;;;20.10;38.10;;;;;;5055948;28;20040;-62
2022/04/19 04:16:19;;;;;;;5.63;3.60;;;20.10;38.10;;;;;;5056320;28;20446;-61
2022/04/19 04:18:44;;;;;;;3.28;2.80;;;20.10;38.10;;;;;;5055538;28;20438;-62
2022/04/19 04:21:10;;;;;;;5.55;3.10;;;20.10;38.10;;;;;;5050152;28;20368;-64
2022/04/19 04:23:35;;;;;;;3.53;3.22;;;20.10;38.20;;;;;;5052934;28;20045;-62
2022/04/19 04:26:01;;;;;;;3.75;3.33;;;20.10;38.20;;;;;;5056675;28;20046;-61
2022/04/19 04:28:26;;;;;;;3.20;2.90;;;20.10;38.20;;;;;;5054974;28;20040;-62
2022/04/19 04:30:52;;;;;;;3.65;3.35;;;20.10;38.30;;;;;;5055400;28;20071;-61
2022/04/19 04:33:17;;;;;;;3.58;3.10;;;20.10;38.30;;;;;;5054524;28;20033;-63
2022/04/19 04:35:43;;;;;;;3.72;3.13;;;20.10;38.40;;;;;;5054814;28;20037;-64
2022/04/19 04:38:09;;;;;;;3.30;3.00;;;20.10;39.20;;;;;;5058757;28;20044;-63
2022/04/19 04:40:35;;;;;;;5.07;4.25;;;20.10;38.40;;;;;;5053901;28;20032;-63
2022/04/19 04:43:00;;;;;;;7.35;4.53;;;20.10;38.30;;;;;;5053445;28;20101;-64
2022/04/19 04:45:26;;;;;;;4.80;4.28;;;20.10;38.00;;;;;;5055753;28;20435;-62
2022/04/19 04:50:37;;;;;;;4.78;4.28;;;20.00;38.50;;;;;;5056864;28;20551;-64
2022/04/19 04:53:03;;;;;;;6.32;4.72;;;20.00;37.80;;;;;;5053752;28;20044;-65
2022/04/19 04:55:28;;;;;;;5.78;4.53;;;20.00;38.00;;;;;;5057713;28;20037;-65
2022/04/19 04:57:57;;;;;;;9.43;4.45;;;20.00;38.90;;;;;;5054624;28;20574;-63
2022/04/19 05:00:25;;;;;;;5.32;4.10;;;20.00;38.40;;;;;;5037507;28;20394;-63
2022/04/19 05:02:51;;;;;;;6.43;4.35;;;20.00;38.60;;;;;;5052079;28;20125;-63
2022/04/19 05:05:17;;;;;;;4.32;3.67;;;20.00;38.50;;;;;;5051587;28;20064;-63
2022/04/19 05:07:42;;;;;;;6.38;4.10;;;20.00;38.50;;;;;;5052363;28;20419;-62
2022/04/19 05:10:09;;;;;;;4.53;4.13;;;20.00;38.50;;;;;;5066800;28;20762;-63
2022/04/19 05:12:34;;;;;;;4.18;3.88;;;20.00;38.50;;;;;;5050108;28;20024;-63
2022/04/19 05:15:00;;;;;;;6.57;4.00;;;20.00;38.50;;;;;;5050171;28;20107;-62
2022/04/19 05:17:26;;;;;;;5.30;3.80;;;20.00;38.50;;;;;;5067780;28;20405;-64
2022/04/19 05:19:54;;;;;;;4.25;3.75;;;20.10;38.60;;;;;;5053518;28;20134;-63
2022/04/19 05:22:20;;;;;;;6.95;3.88;;;20.10;38.60;;;;;;5051441;28;20424;-63
2022/04/19 05:24:45;;;;;;;7.05;4.43;;;20.00;38.50;;;;;;5056978;28;20040;-61
2022/04/19 05:27:11;;;;;;;4.03;3.55;;;20.10;38.60;;;;;;5054529;28;20102;-64
2022/04/19 05:29:37;;;;;;;5.93;3.90;;;20.10;38.60;;;;;;5052996;28;20392;-63
2022/04/19 05:32:03;;;;;;;4.95;4.35;;;20.10;38.50;;;;;;5054157;28;20523;-63
2022/04/19 05:34:28;;;;;;;6.22;4.38;;;20.10;38.60;;;;;;5054047;28;20481;-63
2022/04/19 05:36:54;;;;;;;4.68;3.95;;;20.10;38.60;;;;;;5052099;28;20036;-63
2022/04/19 05:39:19;;;;;;;4.80;3.75;;;20.10;38.60;;;;;;5054511;28;20053;-62
2022/04/19 05:41:45;;;;;;;5.78;3.40;;;20.10;38.50;;;;;;5053563;28;20599;-61
2022/04/19 05:44:10;;;;;;;4.38;3.97;;;20.10;38.50;;;;;;5053643;28;20295;-64
2022/04/19 05:46:36;;;;;;;5.47;3.72;;;20.10;38.50;;;;;;5054877;28;20048;-61
2022/04/19 05:49:04;;;;;;;3.92;3.63;;;20.20;38.60;;;;;;5054585;28;20041;-64
2022/04/19 05:51:30;;;;;;;5.15;3.60;;;20.20;38.70;;;;;;5052776;28;20037;-61
2022/04/19 05:53:55;;;;;;;6.28;3.92;;;20.20;38.70;;;;;;5054723;28;20144;-62
2022/04/19 05:56:21;;;;;;;4.82;3.88;;;20.20;38.70;;;;;;5054442;28;20040;-65
2022/04/19 05:58:47;;;;;;;9.20;3.80;;;20.20;38.70;;;;;;5055061;28;20037;-63
2022/04/19 06:01:12;;;;;;;4.50;3.80;;;20.20;38.60;;;;;;5052290;28;20119;-62
2022/04/19 06:06:22;;;;;;;4.13;3.75;;;20.20;38.60;;;;;;5050512;28;20544;-64
2022/04/19 06:08:49;;;;;;;4.55;3.80;;;20.20;38.60;;;;;;5049905;28;20045;-63
2022/04/19 06:11:15;;;;;;;6.38;4.05;;;20.30;38.70;;;;;;5052049;28;20041;-63
2022/04/19 06:13:41;;;;;;;3.83;3.53;;;20.30;38.70;;;;;;5051023;28;20036;-64
2022/04/19 06:16:07;;;;;;;4.82;3.25;;;20.30;38.70;;;;;;5051803;28;20049;-64
2022/04/19 06:18:34;;;;;;;3.90;3.55;;;20.30;38.60;;;;;;5051029;28;20041;-62
2022/04/19 06:21:00;;;;;;;3.78;3.40;;;20.30;38.70;;;;;;5051058;28;20404;-62
2022/04/19 06:23:26;;;;;;;3.92;3.60;;;20.30;38.80;;;;;;5053165;28;20041;-63
2022/04/19 06:25:51;;;;;;;3.95;3.55;;;20.30;38.90;;;;;;5059094;28;20036;-63
2022/04/19 06:28:17;;;;;;;5.13;4.20;;;20.30;38.80;;;;;;5055980;28;20044;-63
2022/04/19 06:30:43;;;;;;;4.60;4.10;;;20.30;38.90;;;;;;5055454;28;20036;-62
2022/04/19 06:33:09;;;;;;;5.70;4.10;;;20.30;38.80;;;;;;5055741;28;20426;-62
2022/04/19 06:35:34;;;;;;;4.05;3.38;;;20.30;38.80;;;;;;5057628;28;20045;-63
2022/04/19 06:38:00;;;;;;;3.90;3.60;;;20.30;38.80;;;;;;5055708;28;20066;-63
2022/04/19 06:40:25;;;;;;;4.97;3.60;;;20.40;38.90;;;;;;5058403;28;20515;-63
2022/04/19 06:42:51;;;;;;;4.95;3.70;;;20.40;38.90;;;;;;5058369;28;20408;-62
2022/04/19 06:45:17;;;;;;;4.97;3.83;;;20.40;38.80;;;;;;5057046;28;20673;-63
2022/04/19 06:47:44;;;;;;;3.67;3.22;;;20.40;38.80;;;;;;5052258;28;20407;-62
2022/04/19 06:50:10;;;;;;;3.90;3.45;;;20.40;38.80;;;;;;5055489;28;20051;-61
2022/04/19 06:52:36;;;;;;;3.63;3.15;;;20.40;38.80;;;;;;5056242;28;20063;-63
2022/04/19 06:55:02;;;;;;;3.38;3.00;;;20.40;38.80;;;;;;5057647;28;20040;-62
2022/04/19 06:57:28;;;;;;;3.80;3.38;;;20.40;38.90;;;;;;5056085;28;20072;-63
2022/04/19 06:59:54;;;;;;;3.75;3.28;;;20.40;38.90;;;;;;5054234;28;20047;-62
2022/04/19 07:02:19;;;;;;;3.75;3.10;;;20.40;38.90;;;;;;5053156;28;20048;-62
2022/04/19 07:04:45;;;;;;;4.38;3.10;;;20.40;38.90;;;;;;5058684;28;20156;-62
2022/04/19 07:07:10;;;;;;;3.45;3.15;;;20.40;38.90;;;;;;5058063;28;20131;-61
2022/04/19 07:09:37;;;;;;;3.30;3.10;;;20.40;38.90;;;;;;5054303;28;20183;-62
2022/04/19 07:12:03;;;;;;;4.80;3.05;;;20.40;39.00;;;;;;5055053;28;20047;-65
2022/04/19 07:14:28;;;;;;;3.45;3.15;;;20.40;38.90;;;;;;5056021;28;20143;-62
2022/04/19 07:16:54;;;;;;;3.50;3.20;;;20.40;39.00;;;;;;5055046;28;20123;-62
2022/04/19 07:19:20;;;;;;;3.15;2.85;;;20.40;39.00;;;;;;5055254;28;20488;-62
2022/04/19 07:27:14;;;;;;;3.00;2.70;;;20.50;39.00;;;;;;5056575;28;20381;-64
2022/04/19 07:29:40;;;;;;;3.03;2.72;;;20.50;39.10;;;;;;5048752;28;20044;-63
2022/04/19 07:32:06;;;;;;;3.50;3.20;;;20.50;39.20;;;;;;5054922;28;20494;-63
2022/04/19 07:34:33;;;;;;;4.03;3.00;;;20.50;39.30;;;;;;5053233;28;20041;-63
2022/04/19 07:36:59;;;;;;;3.40;3.10;;;20.50;39.40;;;;;;5053148;28;20040;-63
2022/04/19 07:39:24;;;;;;;3.95;3.00;;;20.50;39.50;;;;;;5054167;28;20037;-63
2022/04/19 07:41:50;;;;;;;4.47;3.00;;;20.50;39.50;;;;;;5053324;28;20048;-64
2022/04/19 07:44:16;;;;;;;3.88;2.63;;;20.50;39.60;;;;;;5051931;28;20064;-63
2022/04/19 07:46:42;;;;;;;3.38;2.90;;;20.50;39.60;;;;;;5054246;28;20377;-62
2022/04/19 07:49:08;;;;;;;3.70;3.10;;;20.50;39.60;;;;;;5055496;28;20556;-62
2022/04/19 07:51:35;;;;;;;3.20;2.90;;;20.50;39.60;;;;;;5052054;28;20043;-63
2022/04/19 07:54:01;;;;;;;2.75;2.55;;;20.50;39.60;;;;;;5054896;28;20125;-62
2022/04/19 07:56:27;;;;;;;3.10;2.80;;;20.50;39.60;;;;;;5054693;28;20094;-62
2022/04/19 07:58:53;;;;;;;3.97;3.58;;;20.50;39.60;;;;;;5042621;28;20595;-62
2022/04/19 08:01:19;;;;;;;3.15;2.88;;;20.60;39.70;;;;;;5057267;28;20127;-63
2022/04/19 08:03:45;;;;;;;3.30;2.80;;;20.60;39.70;;;;;;5053810;28;20382;-62
2022/04/19 08:06:12;;;;;;;3.28;2.70;;;20.60;39.70;;;;;;5055476;28;20568;-64
2022/04/19 08:08:38;;;;;;;3.95;2.85;;;20.60;39.70;;;;;;5054500;28;20036;-62
2022/04/19 08:11:04;;;;;;;3.20;2.90;;;20.60;39.60;;;;;;5056020;28;20045;-63
2022/04/19 08:13:30;;;;;;;2.95;2.72;;;20.60;39.60;;;;;;5054338;28;20478;-64
2022/04/19 08:15:56;;;;;;;3.47;2.67;;;20.60;39.60;;;;;;5056078;28;20037;-62
2022/04/19 08:18:22;;;;;;;3.40;2.80;;;20.60;39.60;;;;;;5053730;28;20028;-62
2022/04/19 08:20:48;;;;;;;4.95;2.72;;;20.60;39.60;;;;;;5053828;28;20037;-62
2022/04/19 08:23:14;;;;;;;3.33;2.78;;;20.60;39.50;;;;;;5052320;28;20032;-62
2022/04/19 08:25:42;;;;;;;3.28;2.63;;;20.70;39.70;;;;;;5054753;28;20052;-62
2022/04/19 08:28:08;;;;;;;2.97;2.60;;;20.70;39.60;;;;;;5050580;28;20575;-63
2022/04/19 08:30:34;;;;;;;3.28;2.65;;;20.70;39.50;;;;;;5053088;28;20068;-65
2022/04/19 08:33:00;;;;;;;3.53;2.58;;;20.70;39.50;;;;;;5050189;28;20123;-66
2022/04/19 08:35:26;;;;;;;2.55;2.30;;;20.70;39.50;;;;;;5049251;28;20053;-63
2022/04/19 08:37:52;;;;;;;2.60;2.40;;;20.70;39.60;;;;;;5050885;28;20036;-63
2022/04/19 08:40:18;;;;;;;2.95;2.17;;;20.70;39.70;;;;;;5052965;28;20067;-63
2022/04/19 08:42:44;;;;;;;2.67;2.08;;;20.70;39.70;;;;;;5051480;28;20048;-64
2022/04/19 08:45:13;;;;;;;2.47;2.28;;;20.70;39.80;;;;;;5055943;28;20062;-63
2022/04/19 08:47:41;;;;;;;2.15;1.95;;;20.70;39.90;;;;;;5049672;28;20044;-64
2022/04/19 08:50:13;;;;;;;2.70;2.03;;;20.70;40.00;;;;;;5069513;28;20049;-66
2022/04/19 08:52:39;;;;;;;2.75;1.88;;;20.70;40.10;;;;;;5067830;28;20188;-62
2022/04/19 08:57:51;;;;;;;3.88;2.10;;;20.70;41.00;;;;;;5053471;28;20412;-63
2022/04/19 09:00:17;;;;;;;2.25;1.83;;;20.70;40.40;;;;;;5053649;28;20033;-62
2022/04/19 09:02:43;;;;;;;2.35;2.08;;;20.70;40.40;;;;;;5056676;28;20140;-62
2022/04/19 09:05:18;;;;;;;3.72;1.65;;;20.70;40.80;;;;;;5053515;28;20127;-62
2022/04/19 09:07:45;;;;;;;2.38;2.13;;;20.70;40.80;;;;;;5053549;28;20552;-63
2022/04/19 09:10:14;;;;;;;2.17;1.90;;;20.70;41.10;;;;;;5052815;28;20041;-63
2022/04/19 09:12:55;;;;;;;2.42;1.80;;;20.70;41.20;;;;;;5053523;28;20028;-62
2022/04/19 09:15:21;;;;;;;1.73;1.63;;;20.70;41.50;;;;;;5051333;28;20037;-63
2022/04/19 09:17:48;;;;;;;2.22;1.80;;;20.70;41.50;;;;;;5050900;28;20090;-62
2022/04/19 09:20:18;;;;;;;3.25;1.95;;;20.70;41.50;;;;;;5055605;28;20099;-63
2022/04/19 09:22:44;;;;;;;2.17;1.77;;;20.70;41.50;;;;;;5034955;28;20044;-62
2022/04/19 09:25:29;;;;;;;2.28;1.70;;;20.70;41.50;;;;;;5070957;28;20473;-63
2022/04/19 09:27:56;;;;;;;2.20;1.98;;;20.70;41.50;;;;;;5052651;28;20420;-62
2022/04/19 09:30:24;;;;;;;2.10;1.63;;;20.70;41.50;;;;;;5054130;28;20127;-63
2022/04/19 09:33:08;;;;;;;1.70;1.60;;;20.80;41.60;;;;;;5049412;28;20179;-64
2022/04/19 09:35:47;;;;;;;2.70;1.95;;;20.80;41.70;;;;;;5053047;28;20041;-65
2022/04/19 09:38:13;;;;;;;2.08;1.50;;;20.80;41.70;;;;;;5051971;28;20461;-63
2022/04/19 09:40:47;;;;;;;1.60;1.50;;;20.80;41.60;;;;;;5050263;28;20036;-64
2022/04/19 09:43:15;;;;;;;1.55;1.40;;;20.80;41.80;;;;;;5050226;28;20040;-63
2022/04/19 09:45:59;;;;;;;1.77;1.38;;;20.70;41.70;;;;;;5050934;28;20064;-63
2022/04/19 09:48:34;;;;;;;2.22;1.45;;;20.80;41.70;;;;;;5053654;28;20163;-64
2022/04/19 09:51:02;;;;;;;2.63;1.77;;;20.80;41.80;;;;;;5056036;28;20054;-65
2022/04/19 09:53:38;;;;;;;2.08;1.45;;;20.80;41.70;;;;;;5051503;28;20108;-63
2022/04/19 09:56:08;;;;;;;1.90;1.60;;;20.70;41.70;;;;;;5070251;28;20118;-62
2022/04/19 09:58:34;;;;;;;2.25;1.60;;;20.80;41.70;;;;;;5037458;28;20048;-63
2022/04/19 10:01:00;;;;;;;2.67;1.70;;;20.80;41.60;;;;;;5054127;28;20238;-63
2022/04/19 10:08:58;;;;;;;2.65;1.52;;;20.80;41.40;;;;;;5056778;28;20497;-63
2022/04/19 10:11:26;;;;;;;2.05;1.50;;;20.80;41.10;;;;;;5055586;28;20330;-64
2022/04/19 10:13:54;;;;;;;1.85;1.70;;;20.70;40.70;;;;;;5056307;28;20442;-63
2022/04/19 10:16:20;;;;;;;1.60;1.50;;;20.70;40.50;;;;;;5052626;28;20036;-63
2022/04/19 10:18:45;;;;;;;1.95;1.73;;;20.80;40.60;;;;;;5056168;28;20452;-64
2022/04/19 10:21:16;;;;;;;2.47;1.30;;;20.70;40.10;;;;;;5054638;28;20136;-63
2022/04/19 10:23:42;;;;;;;1.85;1.30;;;20.70;40.00;;;;;;5046291;28;20040;-64
2022/04/19 10:26:23;;;;;;;2.03;1.02;;;20.70;40.00;;;;;;5056606;28;20204;-63
2022/04/19 10:28:58;;;;;;;1.98;1.55;;;20.70;39.90;;;;;;5052271;28;20041;-64
2022/04/19 10:31:25;;;;;;;2.70;1.10;;;20.70;39.30;;;;;;5055847;28;20071;-64
2022/04/19 10:33:52;;;;;;;2.35;1.23;;;20.70;39.30;;;;;;5057009;28;20060;-64
2022/04/19 10:36:20;;;;;;;3.15;1.05;;;20.70;38.40;;;;;;5073100;28;20037;-64
2022/04/19 10:39:19;;;;;;;2.25;1.10;;;20.70;38.90;;;;;;5052866;28;20036;-64
2022/04/19 10:41:58;;;;;;;1.00;0.90;;;20.70;38.60;;;;;;5037919;28;20036;-65
2022/04/19 10:44:29;;;;;;;1.27;0.80;;;20.70;38.80;;;;;;5058485;28;20071;-64
2022/04/19 10:47:05;;;;;;;1.60;1.17;;;20.70;38.70;;;;;;5058835;28;20101;-65
2022/04/19 10:49:30;;;;;;;2.17;1.35;;;20.70;38.60;;;;;;5054930;28;20170;-64
2022/04/19 10:52:00;;;;;;;1.80;1.20;;;20.70;38.60;;;;;;5053844;28;20040;-65
2022/04/19 10:55:02;;;;;;;1.00;1.00;;;20.70;38.40;;;;;;5058119;28;20045;-64
2022/04/19 11:00:49;;;;;;;2.67;1.35;;;20.70;38.10;;;;;;5053263;28;20048;-64
2022/04/19 11:03:29;;;;;;;3.78;1.25;;;20.70;38.10;;;;;;5061095;28;20071;-64
2022/04/19 11:05:59;;;;;;;4.85;1.15;;;20.70;37.80;;;;;;5057892;28;20075;-65
2022/04/19 11:08:24;;;;;;;1.90;1.75;;;20.70;38.10;;;;;;5055843;28;20135;-65
2022/04/19 11:11:01;;;;;;;2.70;1.15;;;20.70;37.90;;;;;;5057145;28;20068;-65
2022/04/19 11:13:38;;;;;;;2.67;1.00;;;20.70;38.00;;;;;;5048024;28;20052;-66
2022/04/19 11:16:03;;;;;;;2.03;1.02;;;20.70;38.00;;;;;;5052078;28;20052;-65
2022/04/19 11:18:30;;;;;;;1.83;0.90;;;20.70;38.00;;;;;;5051277;28;20045;-64
2022/04/19 11:20:58;;;;;;;2.35;1.08;;;20.70;37.70;;;;;;5055707;28;20041;-62
2022/04/19 11:23:25;;;;;;;1.13;1.02;;;20.70;37.50;;;;;;5057940;28;20598;-62
2022/04/19 11:25:53;;;;;;;1.58;0.90;;;20.70;37.40;;;;;;5055596;28;20195;-63
2022/04/19 11:28:30;;;;;;;1.83;0.80;;;20.70;37.40;;;;;;5054620;28;20076;-63
2022/04/19 11:30:55;;;;;;;1.85;0.90;;;20.70;36.90;;;;;;5054664;28;20062;-62
2022/04/19 11:33:22;;;;;;;0.85;0.82;;;20.70;37.00;;;;;;5070419;28;20101;-64
2022/04/19 11:36:16;;;;;;;0.95;0.82;;;20.70;36.70;;;;;;5054516;28;20127;-62
2022/04/19 11:38:49;;;;;;;3.20;0.90;;;20.70;36.40;;;;;;5059005;28;20472;-63
2022/04/19 11:46:49;;;;;;;1.30;0.70;;;20.70;36.80;;;;;;5057220;28;20124;-62
2022/04/19 11:49:30;;;;;;;0.80;0.80;;;20.70;36.80;;;;;;5055410;28;20136;-62
2022/04/19 11:52:06;;;;;;;1.87;0.70;;;20.70;36.60;;;;;;5054918;28;20120;-63
2022/04/19 11:54:32;;;;;;;2.40;0.80;;;20.70;36.80;;;;;;5052945;28;20301;-63
2022/04/19 11:57:03;;;;;;;0.73;0.70;;;20.70;36.80;;;;;;5056338;28;20036;-63
2022/04/19 11:59:32;;;;;;;1.50;0.70;;;20.70;36.60;;;;;;5053238;28;20064;-64
2022/04/19 12:01:58;;;;;;;1.95;1.02;;;20.70;36.50;;;;;;5051840;28;20416;-64
2022/04/19 12:04:25;;;;;;;1.50;0.90;;;20.70;36.20;;;;;;5051621;28;20497;-64
2022/04/19 12:07:01;;;;;;;0.63;0.60;;;20.70;36.00;;;;;;5051779;28;20489;-65
2022/04/19 12:09:28;;;;;;;1.52;0.90;;;20.70;35.90;;;;;;5054595;28;20086;-63
2022/04/19 12:11:54;;;;;;;1.65;0.90;;;20.70;36.10;;;;;;5053127;28;20123;-62
2022/04/19 12:14:30;;;;;;;1.20;0.77;;;20.70;36.00;;;;;;5056930;28;20032;-62
2022/04/19 12:17:08;;;;;;;0.70;0.70;;;20.70;36.20;;;;;;5052588;28;20052;-62
2022/04/19 12:19:41;;;;;;;1.58;0.70;;;20.70;36.30;;;;;;5051657;28;20041;-62
2022/04/19 12:22:18;;;;;;;2.67;0.73;;;20.70;36.30;;;;;;5052556;28;20105;-64
2022/04/19 12:24:53;;;;;;;2.72;0.68;;;20.70;36.40;;;;;;5054884;28;20033;-62
2022/04/19 12:27:34;;;;;;;1.95;0.93;;;20.70;36.40;;;;;;5060989;28;20040;-62
2022/04/19 12:30:12;;;;;;;1.45;0.73;;;20.70;36.40;;;;;;5039971;28;20169;-63
2022/04/19 12:32:59;;;;;;;0.75;0.70;;;20.70;36.50;;;;;;5060827;28;20048;-63
2022/04/19 12:35:29;;;;;;;1.05;0.80;;;20.70;36.50;;;;;;5052108;28;20060;-62
2022/04/19 12:38:08;;;;;;;0.75;0.75;;;20.70;36.60;;;;;;5053505;28;20614;-63
2022/04/19 12:40:34;;;;;;;0.50;0.50;;;20.70;36.50;;;;;;5053878;28;20656;-62
2022/04/19 12:43:00;;;;;;;1.30;0.70;;;20.70;36.50;;;;;;5054845;28;20056;-62
2022/04/19 12:45:31;;;;;;;0.73;0.60;;;20.70;36.50;;;;;;5053806;28;20123;-62
2022/04/19 12:48:00;;;;;;;1.70;0.80;;;20.70;36.50;;;;;;5056243;28;20127;-62
2022/04/19 12:50:27;;;;;;;2.45;0.73;;;20.70;36.50;;;;;;5056097;28;20068;-63
2022/04/19 12:52:53;;;;;;;1.08;0.55;;;20.70;36.50;;;;;;5056046;28;20036;-62
2022/04/19 12:55:31;;;;;;;0.60;0.60;;;20.70;36.60;;;;;;5051380;28;20036;-63
2022/04/19 12:58:07;;;;;;;0.70;0.70;;;20.70;36.50;;;;;;5043953;28;20613;-62
2022/04/19 13:00:34;;;;;;;1.98;0.98;;;20.70;36.50;;;;;;5069296;28;20045;-61
2022/04/19 13:02:59;;;;;;;0.68;0.68;;;20.70;36.10;;;;;;5055016;28;20111;-64
2022/04/19 13:12:16;;;;;;;1.00;0.90;;;20.70;36.10;;;;;;5061478;28;20123;-64
2022/04/19 13:13:39;;;;;;;1.58;0.70;;;20.70;36.50;;;;;;5053960;28;20455;-62
2022/04/19 13:16:05;;;;;;;1.38;0.80;;;20.70;36.60;;;;;;5043274;28;20725;-64
2022/04/19 13:18:30;;;;;;;2.97;0.80;;;20.80;36.70;;;;;;5053539;28;20043;-62
2022/04/19 13:20:56;;;;;;;0.85;0.60;;;20.80;36.80;;;;;;5053785;28;20037;-63
2022/04/19 13:23:21;;;;;;;1.10;0.70;;;20.80;36.80;;;;;;5054517;28;20594;-64
2022/04/19 13:25:48;;;;;;;1.35;0.80;;;20.80;36.90;;;;;;5053759;28;20452;-63
2022/04/19 13:28:14;;;;;;;2.35;0.80;;;20.80;37.00;;;;;;5054516;28;20149;-63
2022/04/19 13:30:40;;;;;;;1.30;0.70;;;20.80;37.00;;;;;;5051874;28;20096;-63
2022/04/19 13:33:06;;;;;;;1.42;0.60;;;20.80;37.10;;;;;;5054111;28;20044;-63